createdAt,value
2018-08-10T00:00:40.846Z,1.90
2018-08-10T00:03:07.670Z,2.13
2018-08-10T00:05:34.562Z,1.67
2018-08-10T00:08:01.403Z,1.97
2018-08-10T00:10:28.224Z,1.63
2018-08-10T00:12:55.064Z,1.80
2018-08-10T00:15:21.924Z,1.50
2018-08-10T00:17:48.743Z,1.70
2018-08-10T00:20:15.578Z,1.80
2018-08-10T00:22:42.413Z,1.67
2018-08-10T00:25:09.289Z,2.33
2018-08-10T00:27:36.115Z,1.63
2018-08-10T00:30:02.975Z,1.77
2018-08-10T00:32:29.807Z,1.80
2018-08-10T00:34:56.629Z,1.30
2018-08-10T00:37:23.459Z,1.70
2018-08-10T00:39:50.296Z,1.47
2018-08-10T00:42:17.124Z,1.40
2018-08-10T00:44:43.966Z,1.53
2018-08-10T00:47:11.118Z,1.50
2018-08-10T00:49:37.924Z,1.43
2018-08-10T00:52:04.749Z,1.90
2018-08-10T00:54:31.594Z,1.50
2018-08-10T00:56:58.465Z,1.43
2018-08-10T00:59:25.321Z,1.30
2018-08-10T01:01:52.156Z,1.60
2018-08-10T01:04:18.985Z,1.43
2018-08-10T01:06:45.821Z,1.30
2018-08-10T01:09:12.644Z,1.30
2018-08-10T01:11:39.486Z,1.57
2018-08-10T01:14:06.327Z,1.10
2018-08-10T01:16:33.225Z,1.20
2018-08-10T01:19:00.061Z,1.20
2018-08-10T01:21:26.878Z,1.17
2018-08-10T01:23:53.698Z,1.07
2018-08-10T01:26:20.553Z,1.37
2018-08-10T01:28:47.455Z,1.40
2018-08-10T01:31:14.213Z,1.40
2018-08-10T01:33:41.037Z,1.13
2018-08-10T01:36:07.944Z,1.40
2018-08-10T01:38:34.770Z,1.40
2018-08-10T01:41:01.601Z,1.40
2018-08-10T01:43:28.431Z,1.33
2018-08-10T01:45:55.297Z,1.47
2018-08-10T01:48:22.125Z,1.20
2018-08-10T01:50:48.973Z,1.10
2018-08-10T01:53:15.788Z,1.23
2018-08-10T01:55:42.669Z,1.50
2018-08-10T01:58:09.493Z,1.23
2018-08-10T02:00:36.333Z,1.20
2018-08-10T02:03:03.684Z,1.00
2018-08-10T02:05:30.663Z,1.20
2018-08-10T02:07:57.480Z,1.40
2018-08-10T02:10:24.337Z,1.20
2018-08-10T02:12:51.160Z,1.00
2018-08-10T02:15:18.039Z,1.00
2018-08-10T02:17:44.879Z,1.07
2018-08-10T02:20:11.721Z,1.10
2018-08-10T02:22:38.567Z,1.13
2018-08-10T02:25:05.390Z,1.07
2018-08-10T02:27:32.229Z,1.13
2018-08-10T02:29:59.058Z,1.00
2018-08-10T02:32:25.894Z,0.90
2018-08-10T02:34:52.732Z,1.00
2018-08-10T02:37:19.585Z,0.83
2018-08-10T02:39:46.428Z,0.90
2018-08-10T02:42:13.246Z,1.20
2018-08-10T02:44:40.069Z,1.00
2018-08-10T02:47:07.132Z,1.00
2018-08-10T02:49:34.010Z,0.97
2018-08-10T02:52:00.847Z,1.30
2018-08-10T02:54:27.682Z,0.80
2018-08-10T02:56:54.560Z,1.10
2018-08-10T02:59:21.397Z,1.10
2018-08-10T03:01:48.234Z,0.87
2018-08-10T03:04:15.072Z,0.70
2018-08-10T03:06:41.946Z,0.77
2018-08-10T03:09:08.802Z,0.80
2018-08-10T03:11:35.623Z,0.90
2018-08-10T03:14:02.463Z,0.83
2018-08-10T03:16:29.306Z,0.80
2018-08-10T03:18:56.182Z,0.70
2018-08-10T03:21:22.988Z,0.70
2018-08-10T03:23:49.801Z,0.90
2018-08-10T03:26:16.677Z,0.60
2018-08-10T03:28:43.514Z,0.60
2018-08-10T03:31:10.350Z,0.70
2018-08-10T03:33:37.195Z,0.80
2018-08-10T03:36:04.046Z,0.80
2018-08-10T03:38:30.879Z,0.67
2018-08-10T03:40:57.731Z,0.70
2018-08-10T03:43:24.554Z,0.70
2018-08-10T03:45:51.425Z,0.70
2018-08-10T03:48:18.257Z,0.90
2018-08-10T03:50:45.094Z,0.60
2018-08-10T03:53:11.930Z,0.90
2018-08-10T03:55:38.800Z,0.80
2018-08-10T03:58:05.634Z,0.70
2018-08-10T04:00:32.474Z,0.70
2018-08-10T04:02:59.305Z,0.90
2018-08-10T04:05:26.165Z,0.70
2018-08-10T04:07:53.004Z,1.00
2018-08-10T04:10:19.838Z,0.80
2018-08-10T04:12:46.710Z,0.97
2018-08-10T04:15:14.191Z,0.90
2018-08-10T04:17:40.978Z,0.40
2018-08-10T04:20:07.885Z,0.60
2018-08-10T04:22:34.714Z,0.63
2018-08-10T04:25:01.576Z,2.10
2018-08-10T04:27:28.400Z,1.87
2018-08-10T04:29:55.292Z,1.47
2018-08-10T04:32:22.110Z,0.70
2018-08-10T04:34:48.943Z,0.50
2018-08-10T04:37:15.762Z,0.70
2018-08-10T04:39:42.590Z,0.63
2018-08-10T04:42:09.430Z,0.67
2018-08-10T04:44:36.528Z,0.60
2018-08-10T04:47:03.369Z,0.80
2018-08-10T04:49:30.205Z,0.67
2018-08-10T04:51:57.037Z,0.67
2018-08-10T04:54:23.899Z,8.73
2018-08-10T04:56:50.945Z,10.10
2018-08-10T04:59:17.778Z,2.80
2018-08-10T05:01:44.614Z,1.23
2018-08-10T05:04:11.432Z,0.77
2018-08-10T05:06:38.303Z,0.67
2018-08-10T05:09:05.137Z,1.00
2018-08-10T05:11:32.005Z,0.60
2018-08-10T05:13:58.849Z,0.70
2018-08-10T05:16:25.686Z,0.67
2018-08-10T05:18:52.725Z,0.60
2018-08-10T05:21:19.562Z,0.47
2018-08-10T05:23:46.475Z,0.50
2018-08-10T05:26:13.458Z,0.50
2018-08-10T05:28:40.340Z,0.80
2018-08-10T05:31:07.154Z,0.60
2018-08-10T05:33:34.009Z,0.70
2018-08-10T05:36:00.834Z,0.80
2018-08-10T05:38:27.672Z,0.90
2018-08-10T05:40:54.505Z,1.00
2018-08-10T05:43:21.392Z,1.10
2018-08-10T05:45:48.471Z,0.80
2018-08-10T05:48:15.305Z,0.80
2018-08-10T05:50:42.202Z,0.90
2018-08-10T05:53:09.043Z,0.67
2018-08-10T05:55:35.986Z,0.77
2018-08-10T05:58:02.858Z,0.67
2018-08-10T06:00:29.682Z,0.70
2018-08-10T06:02:56.535Z,0.60
2018-08-10T06:05:23.562Z,0.60
2018-08-10T06:07:50.464Z,0.60
2018-08-10T06:10:17.297Z,0.77
2018-08-10T06:12:44.134Z,0.60
2018-08-10T06:15:10.965Z,1.10
2018-08-10T06:17:37.786Z,0.80
2018-08-10T06:20:04.631Z,0.80
2018-08-10T06:22:31.466Z,0.90
2018-08-10T06:24:58.313Z,0.90
2018-08-10T06:27:25.114Z,0.60
2018-08-10T06:29:51.954Z,0.90
2018-08-10T06:32:19.678Z,0.70
2018-08-10T06:34:46.473Z,0.70
2018-08-10T06:37:13.343Z,0.80
2018-08-10T06:39:40.226Z,0.63
2018-08-10T06:42:07.034Z,1.00
2018-08-10T06:44:33.851Z,0.50
2018-08-10T06:47:00.706Z,0.80
2018-08-10T06:49:27.541Z,0.70
2018-08-10T06:51:54.386Z,0.90
2018-08-10T06:54:21.271Z,0.60
2018-08-10T06:56:48.286Z,1.00
2018-08-10T06:59:15.121Z,0.90
2018-08-10T07:01:42.068Z,0.80
2018-08-10T07:04:08.798Z,1.13
2018-08-10T07:06:35.658Z,0.60
2018-08-10T07:09:02.490Z,0.60
2018-08-10T07:11:29.313Z,0.90
2018-08-10T07:13:56.154Z,1.10
2018-08-10T07:16:23.017Z,0.60
2018-08-10T07:18:49.847Z,0.87
2018-08-10T07:21:17.391Z,1.00
2018-08-10T07:23:44.208Z,0.97
2018-08-10T07:26:11.253Z,0.90
2018-08-10T07:28:38.074Z,1.10
2018-08-10T07:31:04.922Z,0.73
2018-08-10T07:33:31.764Z,0.93
2018-08-10T07:35:58.811Z,0.50
2018-08-10T07:38:25.671Z,0.90
2018-08-10T07:40:53.503Z,0.70
2018-08-10T07:43:20.373Z,0.60
2018-08-10T07:45:47.392Z,0.63
2018-08-10T07:48:14.251Z,0.70
2018-08-10T07:50:41.096Z,0.80
2018-08-10T07:53:07.993Z,1.00
2018-08-10T07:55:35.310Z,0.80
2018-08-10T07:58:02.109Z,0.77
2018-08-10T08:00:28.945Z,0.70
2018-08-10T08:02:56.631Z,0.70
2018-08-10T08:05:23.581Z,0.73
2018-08-10T08:07:50.410Z,0.80
2018-08-10T08:10:17.234Z,1.20
2018-08-10T08:12:44.061Z,1.10
2018-08-10T08:15:10.900Z,0.83
2018-08-10T08:17:37.742Z,0.73
2018-08-10T08:20:04.554Z,0.87
2018-08-10T08:22:31.378Z,0.67
2018-08-10T08:24:58.208Z,1.00
2018-08-10T08:27:25.028Z,0.70
2018-08-10T08:29:51.866Z,0.50
2018-08-10T08:32:18.987Z,0.63
2018-08-10T08:34:45.952Z,0.60
2018-08-10T08:37:12.739Z,0.90
2018-08-10T08:39:39.586Z,0.70
2018-08-10T08:42:06.419Z,0.80
2018-08-10T08:44:33.243Z,0.73
2018-08-10T08:47:00.107Z,1.13
2018-08-10T08:49:26.956Z,0.67
2018-08-10T08:51:53.818Z,0.87
2018-08-10T08:54:20.602Z,0.80
2018-08-10T08:56:47.490Z,0.77
2018-08-10T08:59:14.338Z,0.73
2018-08-10T09:01:41.180Z,1.00
2018-08-10T09:04:08.006Z,0.80
2018-08-10T09:06:34.851Z,0.73
2018-08-10T09:09:01.664Z,0.80
2018-08-10T09:11:28.571Z,0.70
2018-08-10T09:13:55.377Z,0.67
2018-08-10T09:16:22.217Z,0.67
2018-08-10T09:18:49.047Z,0.73
2018-08-10T09:21:15.875Z,0.53
2018-08-10T09:23:42.715Z,0.93
2018-08-10T09:26:09.589Z,0.60
2018-08-10T09:28:36.419Z,0.77
2018-08-10T09:31:03.306Z,0.87
2018-08-10T09:33:30.154Z,0.80
2018-08-10T09:35:57.167Z,0.90
2018-08-10T09:38:24.033Z,1.30
2018-08-10T09:40:50.869Z,1.23
2018-08-10T09:43:17.716Z,1.27
2018-08-10T09:45:44.761Z,1.10
2018-08-10T09:48:11.591Z,1.03
2018-08-10T09:50:38.451Z,1.30
2018-08-10T09:53:05.263Z,1.13
2018-08-10T09:55:32.143Z,0.97
2018-08-10T09:57:59.062Z,1.10
2018-08-10T10:00:25.873Z,1.63
2018-08-10T10:02:52.714Z,1.60
2018-08-10T10:05:19.701Z,1.33
2018-08-10T10:07:46.535Z,1.47
2018-08-10T10:10:13.373Z,1.30
2018-08-10T10:12:40.205Z,1.40
2018-08-10T10:15:07.051Z,0.80
2018-08-10T10:17:33.977Z,0.90
2018-08-10T10:20:00.736Z,0.87
2018-08-10T10:22:27.560Z,1.07
2018-08-10T10:24:54.387Z,1.30
2018-08-10T10:27:21.300Z,0.83
2018-08-10T10:29:48.060Z,0.90
2018-08-10T10:32:26.330Z,0.90
2018-08-10T10:34:53.247Z,1.10
2018-08-10T10:37:20.057Z,0.90
2018-08-10T10:39:46.903Z,0.80
2018-08-10T10:42:13.731Z,1.13
2018-08-10T10:44:40.602Z,0.90
2018-08-10T10:47:07.506Z,1.10
2018-08-10T10:49:34.327Z,0.70
2018-08-10T10:52:01.165Z,1.00
2018-08-10T10:54:27.995Z,0.90
2018-08-10T10:56:54.932Z,0.70
2018-08-10T10:59:21.707Z,0.87
2018-08-10T11:01:48.591Z,0.77
2018-08-10T11:04:15.422Z,1.03
2018-08-10T11:06:42.431Z,0.60
2018-08-10T11:09:09.265Z,0.83
2018-08-10T11:11:36.128Z,0.70
2018-08-10T11:14:02.991Z,0.77
2018-08-10T11:16:30.015Z,0.70
2018-08-10T11:18:57.006Z,0.73
2018-08-10T11:21:23.889Z,0.50
2018-08-10T11:23:50.819Z,0.60
2018-08-10T11:26:17.602Z,0.70
2018-08-10T11:28:44.450Z,0.83
2018-08-10T11:31:11.292Z,0.60
2018-08-10T11:33:38.103Z,1.00
2018-08-10T11:36:04.958Z,0.77
2018-08-10T11:38:31.817Z,0.77
2018-08-10T11:40:58.644Z,0.70
2018-08-10T11:43:25.510Z,0.80
2018-08-10T11:45:52.551Z,0.90
2018-08-10T11:48:19.378Z,0.90
2018-08-10T11:50:46.220Z,0.80
2018-08-10T11:53:13.051Z,0.90
2018-08-10T11:55:39.910Z,0.80
2018-08-10T11:58:06.756Z,0.73
2018-08-10T12:00:33.740Z,0.70
2018-08-10T12:03:00.540Z,0.60
2018-08-10T12:05:27.483Z,1.00
2018-08-10T12:07:54.313Z,1.00
2018-08-10T12:10:21.137Z,1.00
2018-08-10T12:12:48.012Z,0.80
2018-08-10T12:15:14.850Z,1.00
2018-08-10T12:17:41.680Z,0.80
2018-08-10T12:20:08.534Z,0.90
2018-08-10T12:22:35.370Z,1.00
2018-08-10T12:25:02.192Z,1.00
2018-08-10T12:27:29.112Z,0.87
2018-08-10T12:29:56.006Z,1.27
2018-08-10T12:32:23.282Z,1.23
2018-08-10T12:34:50.211Z,1.10
2018-08-10T12:37:17.051Z,0.73
2018-08-10T12:39:43.865Z,0.97
2018-08-10T12:42:10.702Z,1.13
2018-08-10T12:44:37.522Z,0.90
2018-08-10T12:47:04.432Z,0.97
2018-08-10T12:49:31.242Z,1.33
2018-08-10T12:51:58.079Z,1.10
2018-08-10T12:54:24.925Z,1.10
2018-08-10T12:56:51.796Z,0.90
2018-08-10T12:59:18.638Z,0.87
2018-08-10T13:01:45.469Z,0.93
2018-08-10T13:04:12.335Z,0.90
2018-08-10T13:06:39.177Z,0.93
2018-08-10T13:09:06.003Z,1.43
2018-08-10T13:11:32.859Z,0.93
2018-08-10T13:13:59.690Z,0.93
2018-08-10T13:16:26.539Z,0.60
2018-08-10T13:18:53.360Z,1.03
2018-08-10T13:21:20.192Z,0.87
2018-08-10T13:23:47.067Z,1.20
2018-08-10T13:26:13.915Z,1.00
2018-08-10T13:28:40.744Z,1.10
2018-08-10T13:31:07.563Z,0.83
2018-08-10T13:33:34.387Z,1.00
2018-08-10T13:36:01.290Z,0.90
2018-08-10T13:38:28.131Z,0.87
2018-08-10T13:40:54.973Z,1.00
2018-08-10T13:43:21.773Z,0.80
2018-08-10T13:45:48.674Z,0.80
2018-08-10T13:48:15.516Z,0.90
2018-08-10T13:50:42.365Z,0.93
2018-08-10T13:53:09.250Z,1.00
2018-08-10T13:55:36.037Z,1.03
2018-08-10T13:58:02.895Z,0.80
2018-08-10T14:00:29.723Z,0.80
2018-08-10T14:02:56.551Z,1.10
2018-08-10T14:05:23.405Z,1.50
2018-08-10T14:07:50.232Z,1.20
2018-08-10T14:10:17.055Z,0.90
2018-08-10T14:12:43.894Z,1.10
2018-08-10T14:15:10.774Z,0.83
2018-08-10T14:17:37.593Z,0.80
2018-08-10T14:20:04.418Z,1.00
2018-08-10T14:22:31.274Z,1.20
2018-08-10T14:24:58.134Z,1.13
2018-08-10T14:27:24.974Z,1.17
2018-08-10T14:29:51.799Z,1.10
2018-08-10T14:32:19.308Z,0.93
2018-08-10T14:34:46.147Z,1.00
2018-08-10T14:37:12.986Z,1.50
2018-08-10T14:39:40.020Z,0.87
2018-08-10T14:42:06.837Z,0.93
2018-08-10T14:44:33.682Z,1.00
2018-08-10T14:47:00.718Z,1.03
2018-08-10T14:49:27.423Z,1.00
2018-08-10T14:51:54.476Z,1.23
2018-08-10T14:54:21.297Z,1.33
2018-08-10T14:56:48.172Z,1.10
2018-08-10T14:59:15.017Z,1.00
2018-08-10T15:01:41.867Z,1.00
2018-08-10T15:04:08.679Z,0.73
2018-08-10T15:06:35.737Z,0.90
2018-08-10T15:09:02.523Z,1.20
2018-08-10T15:11:29.382Z,1.07
2018-08-10T15:13:56.199Z,1.23
2018-08-10T15:16:23.073Z,0.90
2018-08-10T15:18:49.894Z,1.40
2018-08-10T15:21:16.745Z,0.90
2018-08-10T15:23:43.554Z,1.27
2018-08-10T15:26:10.491Z,1.13
2018-08-10T15:28:37.307Z,0.93
2018-08-10T15:31:04.146Z,1.30
2018-08-10T15:33:30.968Z,1.73
2018-08-10T15:35:58.848Z,1.20
2018-08-10T15:38:25.748Z,0.97
2018-08-10T15:40:52.833Z,1.20
2018-08-10T15:43:19.712Z,1.10
2018-08-10T15:45:46.679Z,1.30
2018-08-10T15:48:13.523Z,0.90
2018-08-10T15:50:40.385Z,0.90
2018-08-10T15:53:07.274Z,1.07
2018-08-10T15:55:34.210Z,1.30
2018-08-10T15:58:01.035Z,1.30
2018-08-10T16:00:29.148Z,1.10
2018-08-10T16:02:56.171Z,1.20
2018-08-10T16:05:23.210Z,1.00
2018-08-10T16:07:50.085Z,1.13
2018-08-10T16:10:17.062Z,1.40
2018-08-10T16:12:43.911Z,1.10
2018-08-10T16:15:10.797Z,0.97
2018-08-10T16:17:37.701Z,1.00
2018-08-10T16:20:05.704Z,1.07
2018-08-10T16:22:32.647Z,1.10
2018-08-10T16:24:59.494Z,1.00
2018-08-10T16:27:26.344Z,1.20
2018-08-10T16:29:53.975Z,1.07
2018-08-10T16:32:21.499Z,1.13
2018-08-10T16:34:48.381Z,1.00
2018-08-10T16:37:15.223Z,1.10
2018-08-10T16:39:42.086Z,0.70
2018-08-10T16:42:08.966Z,1.13
2018-08-10T16:44:35.845Z,1.20
2018-08-10T16:47:02.838Z,1.10
2018-08-10T16:49:29.682Z,0.90
2018-08-10T16:51:56.526Z,1.10
2018-08-10T16:54:23.372Z,1.10
2018-08-10T16:56:50.421Z,1.00
2018-08-10T16:59:17.242Z,1.37
2018-08-10T17:01:44.082Z,0.83
2018-08-10T17:04:10.917Z,1.03
2018-08-10T17:06:37.847Z,1.00
2018-08-10T17:09:04.747Z,1.10
2018-08-10T17:11:31.562Z,1.37
2018-08-10T17:13:58.395Z,1.40
2018-08-10T17:16:25.341Z,1.30
2018-08-10T17:18:52.231Z,1.30
2018-08-10T17:21:19.240Z,1.53
2018-08-10T17:23:46.061Z,1.70
2018-08-10T17:26:12.927Z,1.20
2018-08-10T17:28:39.767Z,1.50
2018-08-10T17:31:06.595Z,1.50
2018-08-10T17:33:33.475Z,1.07
2018-08-10T17:36:00.506Z,1.13
2018-08-10T17:38:27.346Z,1.20
2018-08-10T17:40:54.170Z,12.00
2018-08-10T17:43:21.027Z,22.27
2018-08-10T17:45:47.877Z,6.80
2018-08-10T17:48:14.722Z,8.93
2018-08-10T17:50:41.581Z,7.40
2018-08-10T17:53:08.441Z,8.00
2018-08-10T17:55:35.430Z,8.80
2018-08-10T17:58:02.258Z,8.90
2018-08-10T18:00:29.100Z,8.00
2018-08-10T18:02:55.918Z,6.60
2018-08-10T18:05:22.811Z,6.00
2018-08-10T18:07:49.645Z,7.13
2018-08-10T18:10:17.247Z,5.93
2018-08-10T18:12:44.068Z,6.17
2018-08-10T18:15:11.006Z,4.33
2018-08-10T18:17:37.828Z,5.07
2018-08-10T18:20:04.649Z,5.23
2018-08-10T18:22:31.471Z,5.60
2018-08-10T18:24:58.301Z,5.87
2018-08-10T18:27:25.291Z,6.13
2018-08-10T18:29:51.962Z,4.83
2018-08-10T18:32:19.316Z,5.97
2018-08-10T18:34:46.135Z,5.13
2018-08-10T18:37:12.962Z,5.00
2018-08-10T18:39:39.804Z,5.30
2018-08-10T18:42:06.633Z,4.93
2018-08-10T18:44:33.468Z,4.80
2018-08-10T18:47:00.373Z,4.93
2018-08-10T18:49:27.198Z,4.07
2018-08-10T18:51:54.045Z,4.50
2018-08-10T18:54:20.865Z,4.80
2018-08-10T18:56:47.806Z,4.73
2018-08-10T18:59:14.589Z,4.90
2018-08-10T19:01:41.415Z,4.20
2018-08-10T19:04:08.239Z,5.00
2018-08-10T19:06:35.115Z,4.30
2018-08-10T19:09:02.003Z,4.27
2018-08-10T19:11:28.824Z,3.97
2018-08-10T19:13:55.642Z,3.67
2018-08-10T19:16:22.495Z,3.80
2018-08-10T19:18:49.352Z,3.30
2018-08-10T19:21:16.167Z,3.27
2018-08-10T19:23:43.004Z,3.60
2018-08-10T19:26:09.971Z,3.73
2018-08-10T19:28:36.815Z,3.67
2018-08-10T19:31:03.658Z,3.80
2018-08-10T19:33:30.528Z,3.47
2018-08-10T19:35:57.445Z,3.13
2018-08-10T19:38:24.417Z,3.20
2018-08-10T19:40:51.278Z,2.93
2018-08-10T19:43:18.114Z,3.13
2018-08-10T19:45:45.017Z,3.27
2018-08-10T19:48:11.836Z,2.90
2018-08-10T19:50:38.678Z,2.73
2018-08-10T19:53:05.518Z,3.23
2018-08-10T19:55:32.378Z,2.10
2018-08-10T19:57:59.210Z,3.17
2018-08-10T20:00:26.041Z,3.27
2018-08-10T20:02:52.883Z,2.80
2018-08-10T20:05:19.754Z,2.97
2018-08-10T20:07:46.590Z,2.63
2018-08-10T20:10:13.424Z,2.10
2018-08-10T20:12:40.488Z,3.07
2018-08-10T20:15:08.033Z,2.53
2018-08-10T20:17:34.891Z,2.90
2018-08-10T20:20:01.709Z,2.83
2018-08-10T20:22:28.534Z,2.47
2018-08-10T20:24:55.366Z,2.43
2018-08-10T20:27:22.197Z,2.77
2018-08-10T20:29:49.016Z,2.10
2018-08-10T20:32:15.861Z,2.30
2018-08-10T20:34:42.688Z,2.50
2018-08-10T20:37:09.509Z,2.43
2018-08-10T20:39:36.356Z,2.70
2018-08-10T20:42:03.465Z,1.80
2018-08-10T20:44:30.267Z,1.93
2018-08-10T20:46:57.110Z,2.13
2018-08-10T20:49:23.941Z,2.27
2018-08-10T20:51:50.766Z,1.50
2018-08-10T20:54:17.602Z,1.87
2018-08-10T20:56:44.481Z,1.90
2018-08-10T20:59:11.399Z,1.60
2018-08-10T21:01:38.201Z,1.77
2018-08-10T21:04:05.034Z,1.70
2018-08-10T21:06:32.063Z,1.97
2018-08-10T21:08:58.895Z,1.90
2018-08-10T21:11:25.720Z,1.70
2018-08-10T21:13:52.550Z,1.70
2018-08-10T21:16:19.428Z,2.00
2018-08-10T21:18:46.252Z,2.30
2018-08-10T21:21:13.096Z,2.50
2018-08-10T21:23:40.202Z,1.70
2018-08-10T21:26:07.202Z,1.70
2018-08-10T21:28:34.046Z,2.30
2018-08-10T21:31:00.889Z,1.40
2018-08-10T21:33:27.743Z,1.50
2018-08-10T21:35:54.573Z,1.60
2018-08-10T21:38:21.411Z,1.73
2018-08-10T21:40:48.238Z,1.20
2018-08-10T21:43:15.105Z,1.43
2018-08-10T21:45:41.944Z,1.70
2018-08-10T21:48:08.773Z,1.73
2018-08-10T21:50:35.603Z,2.43
2018-08-10T21:53:03.359Z,1.90
2018-08-10T21:55:30.350Z,1.50
2018-08-10T21:57:57.189Z,1.93
2018-08-10T22:00:24.015Z,1.27
2018-08-10T22:02:50.859Z,1.60
2018-08-10T22:05:17.711Z,1.30
2018-08-10T22:07:44.553Z,1.30
2018-08-10T22:10:11.412Z,1.40
2018-08-10T22:12:38.275Z,1.30
2018-08-10T22:15:05.265Z,1.33
2018-08-10T22:17:32.103Z,1.40
2018-08-10T22:19:58.950Z,1.40
2018-08-10T22:22:26.288Z,1.27
2018-08-10T22:24:53.105Z,1.40
2018-08-10T22:27:19.935Z,1.10
2018-08-10T22:29:46.744Z,1.30
2018-08-10T22:32:13.596Z,1.67
2018-08-10T22:34:40.445Z,1.53
2018-08-10T22:37:07.290Z,1.63
2018-08-10T22:39:34.148Z,1.27
2018-08-10T22:42:00.972Z,1.13
2018-08-10T22:44:27.781Z,1.20
2018-08-10T22:46:54.673Z,1.40
2018-08-10T22:49:21.493Z,1.20
2018-08-10T22:51:48.334Z,1.60
2018-08-10T22:54:15.227Z,1.73
2018-08-10T22:56:42.235Z,1.40
2018-08-10T22:59:09.066Z,1.27
2018-08-10T23:01:35.895Z,1.50
2018-08-10T23:04:02.737Z,1.87
2018-08-10T23:06:29.601Z,1.50
2018-08-10T23:08:56.521Z,1.30
2018-08-10T23:11:23.287Z,1.83
2018-08-10T23:13:50.108Z,1.30
2018-08-10T23:16:16.974Z,1.07
2018-08-10T23:18:43.812Z,1.60
2018-08-10T23:21:10.659Z,1.13
2018-08-10T23:23:37.535Z,1.40
2018-08-10T23:26:04.360Z,1.23
2018-08-10T23:28:31.195Z,1.60
2018-08-10T23:30:58.030Z,1.27
2018-08-10T23:33:24.840Z,1.40
2018-08-10T23:35:51.728Z,1.43
2018-08-10T23:38:18.544Z,1.67
2018-08-10T23:40:45.375Z,1.40
2018-08-10T23:43:12.280Z,1.40
2018-08-10T23:45:39.094Z,1.30
2018-08-10T23:48:05.930Z,1.50
2018-08-10T23:50:32.769Z,1.10
2018-08-10T23:52:59.592Z,1.30
2018-08-10T23:55:26.469Z,1.57
2018-08-10T23:57:53.342Z,1.40
